Time;durP1;ratioP1;P1;durP2;ratioP2;P2;SDS_P1;SDS_P2;PMS_P1;PMS_P2;Temp;Humidity;BMP_temperature;BMP_pressure;BME280_temperature;BME280_humidity;BME280_pressure;Samples;Min_cycle;Max_cycle;Signal;HPM_P1;HPM_P2
2021/12/23 00:00:34;;;;;;;1.93;0.80;;;7.10;99.90;;;;;;5022382;28;20233;-94
2021/12/23 00:03:06;;;;;;;1.23;0.73;;;7.00;99.90;;;;;;5023563;28;20309;-96
2021/12/23 00:05:38;;;;;;;2.20;1.03;;;7.00;99.90;;;;;;5016585;28;20209;-95
2021/12/23 00:08:11;;;;;;;1.00;0.97;;;7.00;99.90;;;;;;5039950;28;20257;-94
2021/12/23 00:10:43;;;;;;;1.63;0.50;;;6.90;99.90;;;;;;5043144;28;20200;-91
2021/12/23 00:13:14;;;;;;;1.30;0.60;;;6.90;99.90;;;;;;5041740;28;20197;-96
2021/12/23 00:16:02;;;;;;;0.50;0.50;;;6.90;99.90;;;;;;5040143;28;20220;-96
2021/12/23 00:18:47;;;;;;;0.83;0.40;;;6.80;99.90;;;;;;5042791;28;20205;-94
2021/12/23 00:24:09;;;;;;;1.40;0.40;;;6.80;99.90;;;;;;5039074;28;20628;-94
2021/12/23 00:26:40;;;;;;;0.73;0.50;;;6.70;99.90;;;;;;5039591;28;20228;-95
2021/12/23 00:29:11;;;;;;;1.87;0.60;;;6.70;99.90;;;;;;5040282;28;20259;-94
2021/12/23 00:31:43;;;;;;;1.70;0.70;;;6.70;99.90;;;;;;5039155;28;20230;-95
2021/12/23 00:34:14;;;;;;;1.33;1.13;;;6.70;99.90;;;;;;5038603;28;20240;-95
2021/12/23 00:36:46;;;;;;;1.93;1.73;;;6.70;99.90;;;;;;5038189;28;20284;-96
2021/12/23 00:39:19;;;;;;;1.90;1.27;;;6.70;99.90;;;;;;5038426;28;20205;-96
2021/12/23 00:41:52;;;;;;;0.83;0.83;;;6.70;99.90;;;;;;5038668;28;20269;-96
2021/12/23 00:44:23;;;;;;;1.07;1.00;;;6.70;99.90;;;;;;5038302;28;20297;-96
2021/12/23 00:46:54;;;;;;;1.10;0.70;;;6.70;99.90;;;;;;5038677;28;20589;-96
2021/12/23 00:49:25;;;;;;;1.50;0.80;;;6.70;99.90;;;;;;5039615;28;20304;-95
2021/12/23 00:51:57;;;;;;;1.87;0.63;;;6.70;99.90;;;;;;5039592;28;20251;-96
2021/12/23 00:54:30;;;;;;;0.67;0.60;;;6.70;99.90;;;;;;5022403;28;20304;-93
2021/12/23 00:57:01;;;;;;;1.27;0.77;;;6.70;99.90;;;;;;5046813;28;20223;-94
2021/12/23 00:59:32;;;;;;;1.77;0.87;;;6.70;99.90;;;;;;5057712;28;20189;-96
2021/12/23 01:02:07;;;;;;;1.33;0.70;;;6.70;99.90;;;;;;5057223;28;20225;-95
2021/12/23 01:04:39;;;;;;;2.57;0.80;;;6.70;99.90;;;;;;5046307;28;20345;-92
2021/12/23 01:07:10;;;;;;;1.93;1.30;;;6.70;99.90;;;;;;5047235;28;20205;-94
2021/12/23 01:09:44;;;;;;;1.90;1.47;;;6.70;99.90;;;;;;5041307;28;20239;-95
2021/12/23 01:12:18;;;;;;;1.57;1.20;;;6.70;99.90;;;;;;5039244;28;20220;-92
2021/12/23 01:14:57;;;;;;;1.60;1.27;;;6.70;99.90;;;;;;5041104;28;20228;-92
2021/12/23 01:17:52;;;;;;;1.90;1.30;;;6.70;99.90;;;;;;5039355;28;20204;-96
2021/12/23 01:20:27;;;;;;;2.27;1.70;;;6.80;99.90;;;;;;5039265;28;20243;-95
2021/12/23 01:23:03;;;;;;;2.40;1.77;;;6.80;99.90;;;;;;5038336;28;20231;-95
2021/12/23 01:25:38;;;;;;;2.57;1.60;;;6.80;99.90;;;;;;5041381;28;20290;-96
2021/12/23 01:28:10;;;;;;;2.33;1.90;;;6.90;99.90;;;;;;5025144;28;20657;-95
2021/12/23 01:30:41;;;;;;;2.67;2.20;;;6.90;99.90;;;;;;5023140;28;20665;-95
2021/12/23 01:33:13;;;;;;;3.60;2.50;;;7.00;99.90;;;;;;5039344;28;20215;-95
2021/12/23 01:35:49;;;;;;;2.57;2.20;;;6.90;99.90;;;;;;5006351;28;20236;-95
2021/12/23 01:38:21;;;;;;;2.83;2.30;;;6.90;99.90;;;;;;5039176;28;20287;-95
2021/12/23 01:40:54;;;;;;;2.90;2.70;;;7.00;99.90;;;;;;5038359;28;20724;-96
2021/12/23 01:43:25;;;;;;;2.27;2.07;;;6.90;99.90;;;;;;5037990;28;20268;-95
2021/12/23 01:45:56;;;;;;;2.03;1.83;;;7.00;99.90;;;;;;5038311;28;20214;-95
2021/12/23 01:48:28;;;;;;;1.90;1.77;;;7.00;99.90;;;;;;5038055;28;20270;-95
2021/12/23 01:50:59;;;;;;;2.23;1.90;;;7.00;99.90;;;;;;5037835;28;20211;-96
2021/12/23 01:53:30;;;;;;;3.17;2.00;;;7.00;99.90;;;;;;5038004;28;20235;-95
2021/12/23 01:56:03;;;;;;;1.77;1.67;;;7.00;99.90;;;;;;5020253;28;20236;-96
2021/12/23 01:58:38;;;;;;;1.90;1.47;;;7.00;99.90;;;;;;5038111;28;20229;-94
2021/12/23 02:01:11;;;;;;;3.53;1.70;;;7.00;99.90;;;;;;5019365;28;20235;-96
2021/12/23 02:03:44;;;;;;;2.40;1.60;;;7.10;99.90;;;;;;5023698;28;20244;-95
2021/12/23 02:06:14;;;;;;;1.40;1.30;;;7.10;99.90;;;;;;5017900;28;20285;-95
2021/12/23 02:08:46;;;;;;;1.97;1.40;;;7.10;99.90;;;;;;5020400;28;20294;-95
2021/12/23 02:11:19;;;;;;;0.93;0.80;;;7.00;99.90;;;;;;5006341;28;20204;-95
2021/12/23 02:13:52;;;;;;;1.43;1.10;;;7.00;99.90;;;;;;5020746;28;20330;-95
2021/12/23 02:16:23;;;;;;;2.33;0.90;;;7.10;99.90;;;;;;5018104;28;20240;-95
2021/12/23 02:18:54;;;;;;;1.17;0.90;;;7.00;99.90;;;;;;5018401;28;20276;-95
2021/12/23 02:21:28;;;;;;;1.40;0.97;;;7.00;99.90;;;;;;5018932;28;20297;-96
2021/12/23 02:23:59;;;;;;;0.80;0.80;;;7.00;99.90;;;;;;5018172;28;20656;-95
2021/12/23 02:26:30;;;;;;;1.03;0.93;;;6.90;99.90;;;;;;5018109;28;20244;-95
2021/12/23 02:29:01;;;;;;;1.37;1.03;;;6.90;99.90;;;;;;5003970;28;20244;-96
2021/12/23 02:31:33;;;;;;;1.47;1.10;;;6.90;99.90;;;;;;5028460;28;20207;-96
2021/12/23 02:34:05;;;;;;;1.83;1.23;;;6.90;99.90;;;;;;5036482;28;20205;-96
2021/12/23 02:36:37;;;;;;;2.53;1.47;;;6.90;99.90;;;;;;5035563;28;20201;-93
2021/12/23 02:39:08;;;;;;;3.43;2.73;;;6.90;99.90;;;;;;5036292;28;20232;-95
2021/12/23 02:41:43;;;;;;;2.90;2.23;;;6.90;99.90;;;;;;5035111;28;20216;-96
2021/12/23 02:44:15;;;;;;;3.30;2.00;;;6.90;99.90;;;;;;5020807;28;20298;-96
2021/12/23 02:46:47;;;;;;;2.23;2.00;;;6.80;99.90;;;;;;5017850;28;20228;-95
2021/12/23 02:49:20;;;;;;;2.50;1.53;;;6.90;99.90;;;;;;5033543;28;20229;-96
2021/12/23 02:51:54;;;;;;;1.10;0.90;;;6.80;99.90;;;;;;5038453;28;20205;-96
2021/12/23 02:54:25;;;;;;;1.10;1.00;;;6.90;99.90;;;;;;5047827;28;20208;-95
2021/12/23 02:56:56;;;;;;;0.83;0.80;;;6.90;99.90;;;;;;5040740;28;20204;-96
2021/12/23 02:59:26;;;;;;;2.83;1.30;;;6.80;99.90;;;;;;5046513;28;20239;-96
2021/12/23 03:01:57;;;;;;;1.30;1.20;;;6.80;99.90;;;;;;5054037;28;20201;-95
2021/12/23 03:04:29;;;;;;;1.17;0.97;;;6.80;99.90;;;;;;5056052;28;20647;-95
2021/12/23 03:07:02;;;;;;;0.83;0.73;;;6.80;99.90;;;;;;5055831;28;20199;-95
2021/12/23 03:09:33;;;;;;;1.27;0.70;;;6.70;99.90;;;;;;5056326;28;20205;-95
2021/12/23 03:12:03;;;;;;;2.07;1.00;;;6.70;99.90;;;;;;5056053;28;20304;-93
2021/12/23 03:14:35;;;;;;;1.00;0.80;;;6.80;99.90;;;;;;5055884;28;20185;-95
2021/12/23 03:17:07;;;;;;;1.17;0.73;;;6.80;99.90;;;;;;5053672;28;20237;-95
2021/12/23 03:19:38;;;;;;;0.70;0.70;;;6.80;99.90;;;;;;5046664;28;20572;-96
2021/12/23 03:22:11;;;;;;;1.80;0.80;;;6.80;99.90;;;;;;5030319;28;20222;-95
2021/12/23 03:24:43;;;;;;;1.30;1.20;;;6.80;99.90;;;;;;5047766;28;20216;-94
2021/12/23 03:27:13;;;;;;;2.73;1.23;;;6.80;99.90;;;;;;5028301;28;20209;-95
2021/12/23 03:29:44;;;;;;;2.73;1.17;;;6.80;99.90;;;;;;5026765;28;20215;-95
2021/12/23 03:32:15;;;;;;;1.50;1.07;;;6.80;99.90;;;;;;5022121;28;20213;-94
2021/12/23 03:34:47;;;;;;;1.10;0.80;;;6.80;99.90;;;;;;5023107;28;20209;-94
2021/12/23 03:37:20;;;;;;;2.63;0.70;;;7.00;99.90;;;;;;5023269;28;20202;-95
2021/12/23 03:39:53;;;;;;;1.17;0.77;;;7.10;99.90;;;;;;5024623;28;20210;-96
2021/12/23 03:42:24;;;;;;;1.20;0.93;;;7.10;99.90;;;;;;5024769;28;20213;-94
2021/12/23 03:44:55;;;;;;;1.17;0.87;;;7.20;99.90;;;;;;5024399;28;20270;-95
2021/12/23 03:47:26;;;;;;;0.93;0.80;;;7.20;99.90;;;;;;5023257;28;20271;-96
2021/12/23 03:49:57;;;;;;;1.17;0.97;;;7.20;99.90;;;;;;5022111;28;20198;-94
2021/12/23 03:52:30;;;;;;;1.97;1.00;;;7.10;99.90;;;;;;5022748;28;20207;-95
2021/12/23 03:55:02;;;;;;;1.07;0.97;;;7.10;99.90;;;;;;5022519;28;20292;-95
2021/12/23 03:57:34;;;;;;;1.27;1.10;;;7.20;99.90;;;;;;5004747;28;20242;-94
2021/12/23 04:00:07;;;;;;;1.23;1.07;;;7.20;99.90;;;;;;5005719;28;20313;-95
2021/12/23 04:02:39;;;;;;;0.90;0.73;;;7.20;99.90;;;;;;5022693;28;20209;-95
2021/12/23 04:05:11;;;;;;;0.93;0.80;;;7.30;99.90;;;;;;5028044;28;20340;-94
2021/12/23 04:07:43;;;;;;;1.47;1.10;;;7.30;99.90;;;;;;5040502;28;20272;-94
2021/12/23 04:10:16;;;;;;;2.70;0.83;;;7.30;99.90;;;;;;5042622;28;20207;-95
2021/12/23 04:12:47;;;;;;;1.60;0.80;;;7.30;99.90;;;;;;5041878;28;20235;-94
2021/12/23 04:15:19;;;;;;;0.70;0.50;;;7.40;99.90;;;;;;5040900;28;20220;-95
2021/12/23 04:17:51;;;;;;;2.07;0.60;;;7.40;99.90;;;;;;5040541;28;20284;-94
2021/12/23 04:20:30;;;;;;;0.87;0.77;;;7.40;99.90;;;;;;5043416;28;20209;-94
2021/12/23 04:23:04;;;;;;;1.70;0.80;;;7.40;99.90;;;;;;5041031;28;20328;-95
2021/12/23 04:25:35;;;;;;;1.10;0.80;;;7.40;99.90;;;;;;5041258;28;20275;-96
2021/12/23 04:28:06;;;;;;;1.07;0.70;;;7.40;99.90;;;;;;5021928;28;20217;-95
2021/12/23 04:30:37;;;;;;;0.70;0.70;;;7.30;99.90;;;;;;5040968;28;20293;-95
2021/12/23 04:33:08;;;;;;;1.17;0.90;;;7.30;99.90;;;;;;5043804;28;20530;-95
2021/12/23 04:35:40;;;;;;;1.13;0.90;;;7.30;99.90;;;;;;5008197;28;20598;-95
2021/12/23 04:38:13;;;;;;;1.07;0.70;;;7.40;99.90;;;;;;5040243;28;20207;-96
2021/12/23 04:40:44;;;;;;;1.40;0.60;;;7.30;99.90;;;;;;5042615;28;20205;-96
2021/12/23 04:43:16;;;;;;;0.93;0.70;;;7.30;99.90;;;;;;5039573;28;20232;-96
2021/12/23 04:45:52;;;;;;;0.77;0.60;;;7.20;99.90;;;;;;5047821;28;20319;-95
2021/12/23 04:48:23;;;;;;;0.70;0.70;;;7.20;99.90;;;;;;5042356;28;20214;-96
2021/12/23 04:50:55;;;;;;;2.20;1.03;;;7.20;99.90;;;;;;5040048;28;20239;-95
2021/12/23 04:53:28;;;;;;;1.13;0.80;;;7.20;99.90;;;;;;5041453;28;20657;-95
2021/12/23 04:56:00;;;;;;;0.50;0.50;;;7.10;99.90;;;;;;5041541;28;20294;-96
2021/12/23 04:58:30;;;;;;;1.00;0.80;;;7.10;99.90;;;;;;5041044;28;20209;-96
2021/12/23 05:01:03;;;;;;;1.00;0.80;;;7.10;99.90;;;;;;5040357;28;20250;-96
2021/12/23 05:03:34;;;;;;;1.33;0.90;;;7.10;99.90;;;;;;5040211;28;20555;-96
2021/12/23 05:06:05;;;;;;;1.20;0.93;;;7.00;99.90;;;;;;5040158;28;20240;-96
2021/12/23 05:08:38;;;;;;;2.40;0.80;;;7.00;99.90;;;;;;5041636;28;20209;-95
2021/12/23 05:11:09;;;;;;;1.97;1.23;;;7.00;99.90;;;;;;5042175;28;20236;-96
2021/12/23 05:13:40;;;;;;;1.50;1.10;;;7.00;99.90;;;;;;5042327;28;20197;-96
2021/12/23 05:16:12;;;;;;;1.30;1.17;;;7.00;99.90;;;;;;5026087;28;20225;-96
2021/12/23 05:18:42;;;;;;;1.13;1.03;;;6.90;99.90;;;;;;5039871;28;20212;-95
2021/12/23 05:21:14;;;;;;;2.30;1.70;;;7.00;99.90;;;;;;5039000;28;20264;-96
2021/12/23 05:23:47;;;;;;;2.63;2.07;;;6.90;99.90;;;;;;5041456;28;20625;-95
2021/12/23 05:26:18;;;;;;;2.50;1.80;;;6.90;99.90;;;;;;5038744;28;20283;-95
2021/12/23 05:28:49;;;;;;;2.27;1.43;;;6.90;99.90;;;;;;5038690;28;20213;-96
2021/12/23 05:31:20;;;;;;;1.70;1.20;;;6.90;99.90;;;;;;5040020;28;20213;-94
2021/12/23 05:33:51;;;;;;;1.17;1.00;;;7.00;99.90;;;;;;5037299;28;20236;-94
2021/12/23 05:36:22;;;;;;;1.17;1.07;;;7.00;99.90;;;;;;5036372;28;20209;-95
2021/12/23 05:38:54;;;;;;;0.97;0.90;;;7.00;99.90;;;;;;5027028;28;20241;-95
2021/12/23 05:41:27;;;;;;;0.90;0.80;;;7.10;99.90;;;;;;5004259;28;20287;-95
2021/12/23 05:43:59;;;;;;;0.97;0.90;;;7.10;99.90;;;;;;5021030;28;20220;-95
2021/12/23 05:46:30;;;;;;;0.83;0.77;;;7.10;99.90;;;;;;5019959;28;20229;-96
2021/12/23 05:49:01;;;;;;;1.17;0.90;;;7.10;99.90;;;;;;5019329;28;20209;-96
2021/12/23 05:51:33;;;;;;;1.10;0.80;;;7.10;99.90;;;;;;5019297;28;20248;-95
2021/12/23 05:54:06;;;;;;;0.80;0.80;;;7.10;99.90;;;;;;5020335;28;20329;-94
2021/12/23 05:56:40;;;;;;;1.97;0.97;;;7.10;99.90;;;;;;5017625;28;20241;-96
2021/12/23 05:59:11;;;;;;;1.43;0.87;;;7.10;99.90;;;;;;5021096;28;20202;-95
2021/12/23 06:01:42;;;;;;;0.73;0.70;;;7.10;99.90;;;;;;5020301;28;20274;-94
2021/12/23 06:04:13;;;;;;;0.60;0.60;;;7.10;99.90;;;;;;5021120;28;20240;-95
2021/12/23 06:06:44;;;;;;;1.13;0.70;;;7.20;99.90;;;;;;5019930;28;20776;-94
2021/12/23 06:09:17;;;;;;;1.20;0.77;;;7.40;99.90;;;;;;5040359;28;20215;-96
2021/12/23 06:11:48;;;;;;;0.90;0.53;;;7.50;99.90;;;;;;5039449;28;20231;-94
2021/12/23 06:14:19;;;;;;;1.63;0.50;;;7.60;99.90;;;;;;5040953;28;20240;-93
2021/12/23 06:16:50;;;;;;;0.80;0.80;;;7.60;99.90;;;;;;5025119;28;20247;-93
2021/12/23 06:19:21;;;;;;;0.50;0.40;;;7.60;99.90;;;;;;5044663;28;20239;-93
2021/12/23 06:21:52;;;;;;;0.50;0.30;;;7.80;99.90;;;;;;5041671;28;20240;-96
2021/12/23 06:24:25;;;;;;;0.40;0.40;;;7.70;99.90;;;;;;5039190;28;20205;-95
2021/12/23 06:26:57;;;;;;;0.40;0.40;;;7.70;99.90;;;;;;5042013;28;20235;-95
2021/12/23 06:29:28;;;;;;;2.20;2.10;;;7.60;99.90;;;;;;5041281;28;20238;-96
2021/12/23 06:31:59;;;;;;;0.87;0.47;;;7.80;99.90;;;;;;5039052;28;20239;-95
2021/12/23 06:34:30;;;;;;;0.97;0.40;;;7.80;99.90;;;;;;5039985;28;20214;-95
2021/12/23 06:37:01;;;;;;;1.27;0.70;;;7.60;99.90;;;;;;5041995;28;20242;-94
2021/12/23 06:39:33;;;;;;;0.50;0.40;;;7.50;99.90;;;;;;5043107;28;20224;-95
2021/12/23 06:42:05;;;;;;;0.60;0.60;;;7.40;99.90;;;;;;5042522;28;20227;-96
2021/12/23 06:44:36;;;;;;;0.93;0.50;;;7.40;99.90;;;;;;5038034;28;20207;-95
2021/12/23 06:47:07;;;;;;;0.97;0.40;;;7.30;99.90;;;;;;5038766;28;20251;-95
2021/12/23 06:49:38;;;;;;;0.30;0.30;;;7.40;99.90;;;;;;5042527;28;20236;-95
2021/12/23 06:52:09;;;;;;;0.47;0.40;;;7.30;99.90;;;;;;5038120;28;20244;-95
2021/12/23 06:54:47;;;;;;;2.33;0.60;;;7.30;99.90;;;;;;5040462;28;20201;-96
2021/12/23 06:57:18;;;;;;;0.50;0.50;;;7.30;99.90;;;;;;5038687;28;20200;-96
2021/12/23 06:59:49;;;;;;;0.60;0.50;;;7.30;99.90;;;;;;5040144;28;20212;-95
2021/12/23 07:02:20;;;;;;;1.57;0.50;;;7.30;99.90;;;;;;5039592;28;20210;-95
2021/12/23 07:04:52;;;;;;;0.50;0.50;;;7.40;99.90;;;;;;5040958;28;20206;-96
2021/12/23 07:07:29;;;;;;;0.40;0.40;;;7.50;99.90;;;;;;5035436;28;20341;-95
2021/12/23 07:10:02;;;;;;;0.93;0.40;;;7.50;99.90;;;;;;5041992;28;20234;-94
2021/12/23 07:12:33;;;;;;;0.67;0.50;;;7.40;99.90;;;;;;5042417;28;20284;-95
2021/12/23 07:15:04;;;;;;;1.67;0.90;;;7.40;99.90;;;;;;5040773;28;20209;-95
2021/12/23 07:17:35;;;;;;;0.70;0.40;;;7.40;99.90;;;;;;5043520;28;20247;-96
2021/12/23 07:20:08;;;;;;;0.50;0.43;;;7.40;99.90;;;;;;5042884;28;20292;-96
2021/12/23 07:22:38;;;;;;;0.40;0.40;;;7.30;99.90;;;;;;5043056;28;20248;-96
2021/12/23 07:25:15;;;;;;;0.40;0.40;;;7.40;99.90;;;;;;5042177;28;20205;-95
2021/12/23 07:27:46;;;;;;;1.60;0.40;;;7.40;99.90;;;;;;5041035;28;20277;-94
2021/12/23 07:30:20;;;;;;;0.60;0.40;;;7.40;99.90;;;;;;5041019;28;20236;-95
2021/12/23 07:32:54;;;;;;;1.13;0.40;;;7.50;99.90;;;;;;5029260;28;20694;-94
2021/12/23 07:35:25;;;;;;;0.40;0.40;;;7.50;99.90;;;;;;5041954;28;20250;-96
2021/12/23 07:37:57;;;;;;;0.97;0.50;;;7.40;99.90;;;;;;5040345;28;20240;-96
2021/12/23 07:40:31;;;;;;;0.30;0.30;;;7.40;99.90;;;;;;5044890;28;20656;-96
2021/12/23 07:43:21;;;;;;;0.43;0.43;;;7.30;99.90;;;;;;5045046;28;20208;-96
2021/12/23 07:45:51;;;;;;;0.67;0.37;;;7.30;99.90;;;;;;5043518;28;20245;-95
2021/12/23 07:48:23;;;;;;;1.47;0.60;;;7.20;99.90;;;;;;5045763;28;20271;-95
2021/12/23 07:50:55;;;;;;;1.13;0.50;;;7.20;99.90;;;;;;5058971;28;20211;-94
2021/12/23 07:53:27;;;;;;;4.43;0.70;;;7.20;99.90;;;;;;5059335;28;20193;-93
2021/12/23 07:56:00;;;;;;;2.70;0.70;;;7.10;99.90;;;;;;5059060;28;20203;-95
2021/12/23 07:58:31;;;;;;;1.80;0.70;;;7.10;99.90;;;;;;5059008;28;20201;-95
2021/12/23 08:01:02;;;;;;;8.60;0.97;;;7.00;99.90;;;;;;5052343;28;20656;-94
2021/12/23 08:03:34;;;;;;;1.20;0.70;;;6.90;99.90;;;;;;5041847;28;20284;-96
2021/12/23 08:06:05;;;;;;;4.10;0.80;;;6.90;99.90;;;;;;5039978;28;20209;-95
2021/12/23 08:08:36;;;;;;;3.60;0.70;;;6.90;99.90;;;;;;5040174;28;20231;-95
2021/12/23 08:11:09;;;;;;;1.07;0.60;;;6.90;99.90;;;;;;5039753;28;20205;-95
2021/12/23 08:13:40;;;;;;;0.90;0.80;;;6.90;99.90;;;;;;5020206;28;20359;-96
2021/12/23 08:16:12;;;;;;;6.37;1.00;;;6.90;99.90;;;;;;5021226;28;20669;-96
2021/12/23 08:18:43;;;;;;;2.00;0.60;;;6.80;99.90;;;;;;5040935;28;20215;-94
2021/12/23 08:21:15;;;;;;;2.83;0.80;;;6.80;99.90;;;;;;5058202;23;20340;-94
2021/12/23 08:23:46;;;;;;;6.33;1.00;;;6.80;99.90;;;;;;5042420;28;20244;-96
2021/12/23 08:26:22;;;;;;;1.00;0.90;;;6.80;99.90;;;;;;5038200;28;20213;-95
2021/12/23 08:28:53;;;;;;;1.20;0.90;;;6.80;99.90;;;;;;5048146;28;20246;-96
2021/12/23 08:31:24;;;;;;;1.20;0.90;;;6.80;99.90;;;;;;5041856;28;20320;-95
2021/12/23 08:33:55;;;;;;;1.50;1.30;;;6.70;99.90;;;;;;5039676;28;20284;-96
2021/12/23 08:36:26;;;;;;;7.90;1.20;;;6.70;99.90;;;;;;5039293;28;20878;-95
2021/12/23 08:38:57;;;;;;;2.37;1.43;;;6.70;99.90;;;;;;5039826;28;20243;-96
2021/12/23 08:41:29;;;;;;;3.77;1.27;;;6.70;99.90;;;;;;5041093;28;20220;-95
2021/12/23 08:44:00;;;;;;;2.17;0.93;;;6.70;99.90;;;;;;5039882;28;20248;-96
2021/12/23 08:46:32;;;;;;;2.20;1.30;;;6.70;99.90;;;;;;5021179;28;20241;-95
2021/12/23 08:49:03;;;;;;;1.93;1.30;;;6.70;99.90;;;;;;5038659;28;20665;-95
2021/12/23 08:51:35;;;;;;;2.07;1.20;;;6.70;99.90;;;;;;5039692;28;20240;-95
2021/12/23 08:54:07;;;;;;;2.77;1.30;;;6.80;99.90;;;;;;5038495;28;20244;-96
2021/12/23 08:56:40;;;;;;;1.20;1.00;;;6.80;99.90;;;;;;5041172;28;20240;-95
2021/12/23 08:59:12;;;;;;;3.57;1.20;;;6.80;99.90;;;;;;5039062;28;20212;-95
2021/12/23 09:01:45;;;;;;;1.63;0.80;;;6.90;99.90;;;;;;5039969;28;20294;-95
2021/12/23 09:04:16;;;;;;;2.00;0.90;;;6.90;99.90;;;;;;5039569;28;20299;-95
2021/12/23 09:06:51;;;;;;;4.23;0.70;;;6.90;99.90;;;;;;5042616;28;20218;-95
2021/12/23 09:09:24;;;;;;;0.87;0.60;;;6.90;99.90;;;;;;5040922;28;20240;-94
2021/12/23 09:11:57;;;;;;;1.13;0.50;;;6.90;99.90;;;;;;5041448;28;20232;-95
2021/12/23 09:14:29;;;;;;;0.40;0.33;;;6.80;99.90;;;;;;5040654;28;20213;-94
2021/12/23 09:16:59;;;;;;;1.37;0.47;;;6.80;99.90;;;;;;5042495;28;20198;-95
2021/12/23 09:19:30;;;;;;;1.33;0.33;;;6.80;99.90;;;;;;5041225;28;20209;-94
2021/12/23 09:22:01;;;;;;;0.30;0.30;;;6.80;99.90;;;;;;5040314;28;20213;-96
2021/12/23 09:24:33;;;;;;;1.50;0.20;;;6.80;99.90;;;;;;5041088;28;20238;-94
2021/12/23 09:27:18;;;;;;;2.77;0.57;;;6.70;99.90;;;;;;5042339;28;20236;-92
2021/12/23 09:32:52;;;;;;;0.57;0.20;;;6.60;99.90;;;;;;5036569;28;20205;-95
2021/12/23 09:35:41;;;;;;;1.50;1.40;;;6.50;99.90;;;;;;5037306;28;20209;-95
2021/12/23 09:38:13;;;;;;;1.83;0.20;;;6.50;99.90;;;;;;5036379;28;20220;-95
2021/12/23 09:40:45;;;;;;;0.30;0.27;;;6.50;99.90;;;;;;5037177;28;20232;-95
2021/12/23 09:43:18;;;;;;;0.63;0.20;;;6.40;99.90;;;;;;5051572;28;20204;-95
2021/12/23 09:45:50;;;;;;;1.00;0.90;;;6.40;99.90;;;;;;5040129;28;20204;-92
2021/12/23 09:48:26;;;;;;;0.80;0.30;;;6.40;99.90;;;;;;5056440;28;20224;-95
2021/12/23 09:50:59;;;;;;;0.70;0.20;;;6.30;99.90;;;;;;5052935;28;20201;-94
2021/12/23 09:53:34;;;;;;;0.60;0.20;;;6.30;99.90;;;;;;5038813;28;20207;-94
2021/12/23 09:56:07;;;;;;;0.20;0.20;;;6.30;99.90;;;;;;5037767;28;20232;-95
2021/12/23 09:58:41;;;;;;;0.20;0.20;;;6.20;99.90;;;;;;5038316;28;20220;-95
2021/12/23 10:01:12;;;;;;;0.10;0.10;;;6.20;99.90;;;;;;5039777;28;20219;-95
2021/12/23 10:03:43;;;;;;;0.50;0.20;;;6.20;99.90;;;;;;5052107;28;20215;-96
2021/12/23 10:06:14;;;;;;;1.03;0.20;;;6.20;99.90;;;;;;5056298;28;20189;-96
2021/12/23 10:08:47;;;;;;;1.30;0.30;;;6.20;99.90;;;;;;5055169;28;20258;-95
2021/12/23 10:11:27;;;;;;;0.60;0.20;;;6.20;99.90;;;;;;5041708;28;20204;-96
2021/12/23 10:31:47;;;;;;;0.20;0.20;;;5.70;99.90;;;;;;5018116;28;20240;-96
2021/12/23 10:37:18;;;;;;;0.70;0.70;;;5.70;99.90;;;;;;5037381;28;20240;-95
2021/12/23 10:39:51;;;;;;;0.20;0.20;;;5.60;99.90;;;;;;5037900;28;20288;-96
2021/12/23 10:42:24;;;;;;;0.20;0.20;;;5.60;99.90;;;;;;5036515;28;20233;-96
2021/12/23 10:44:57;;;;;;;0.20;0.20;;;5.50;99.90;;;;;;5042306;28;20769;-95
2021/12/23 10:47:41;;;;;;;0.30;0.20;;;5.50;99.90;;;;;;5040619;28;20200;-95
2021/12/23 10:50:22;;;;;;;0.60;0.20;;;5.50;99.90;;;;;;5044315;28;20224;-96
2021/12/23 10:52:55;;;;;;;0.20;0.20;;;5.50;99.90;;;;;;5023857;28;20291;-96
2021/12/23 10:58:16;;;;;;;0.10;0.10;;;5.50;99.90;;;;;;5041039;28;20213;-95
2021/12/23 11:00:50;;;;;;;0.10;0.10;;;5.40;99.90;;;;;;5041643;28;20205;-95
2021/12/23 11:03:29;;;;;;;0.10;0.10;;;5.40;99.90;;;;;;5041769;28;20204;-96
2021/12/23 11:06:08;;;;;;;0.10;0.10;;;5.40;99.90;;;;;;5043066;28;20292;-96
2021/12/23 11:08:49;;;;;;;0.10;0.10;;;5.30;99.90;;;;;;5041922;28;20653;-94
2021/12/23 11:37:12;;;;;;;1.70;0.30;;;5.20;99.90;;;;;;5023902;28;20216;-96
2021/12/23 11:40:04;;;;;;;0.33;0.20;;;5.20;99.90;;;;;;5042616;28;20205;-95
2021/12/23 11:42:59;;;;;;;0.87;0.50;;;5.10;99.90;;;;;;5037925;28;20720;-95
2021/12/23 11:45:29;;;;;;;0.60;0.30;;;5.10;99.90;;;;;;5040483;28;20237;-96
2021/12/23 11:48:04;;;;;;;0.57;0.30;;;5.10;99.90;;;;;;5041885;28;20208;-94
2021/12/23 11:50:43;;;;;;;1.67;0.70;;;5.10;99.90;;;;;;5040794;28;20367;-95
2021/12/23 11:53:17;;;;;;;2.33;0.23;;;5.10;99.90;;;;;;5041183;28;20209;-96
2021/12/23 11:55:49;;;;;;;4.13;0.40;;;5.10;99.90;;;;;;5040958;28;20549;-96
2021/12/23 11:58:24;;;;;;;3.33;2.33;;;5.10;99.90;;;;;;5040146;28;20248;-95
2021/12/23 12:01:07;;;;;;;1.60;0.50;;;5.10;99.90;;;;;;5041186;28;20208;-96
2021/12/23 12:03:55;;;;;;;1.87;0.83;;;5.10;99.90;;;;;;5039173;28;20224;-96
2021/12/23 12:06:32;;;;;;;1.97;0.90;;;5.10;99.90;;;;;;5039931;28;20209;-96
2021/12/23 12:09:25;;;;;;;4.53;0.53;;;5.10;99.90;;;;;;5040919;28;20259;-96
2021/12/23 12:12:10;;;;;;;1.80;0.40;;;5.10;99.90;;;;;;5042211;28;20220;-94
2021/12/23 12:14:48;;;;;;;5.03;0.80;;;5.10;99.90;;;;;;5010641;28;20708;-95
2021/12/23 12:17:38;;;;;;;1.87;0.50;;;5.10;99.90;;;;;;5023537;28;20230;-96
2021/12/23 12:20:25;;;;;;;1.90;0.50;;;5.10;99.90;;;;;;5037862;28;20233;-95
2021/12/23 12:23:01;;;;;;;6.50;4.33;;;5.10;99.90;;;;;;5088046;22;20247;-96
2021/12/23 12:25:59;;;;;;;3.20;1.47;;;5.10;99.90;;;;;;5046488;28;20232;-96
2021/12/23 12:28:36;;;;;;;5.50;1.10;;;5.00;99.90;;;;;;5040905;28;20332;-96
2021/12/23 12:31:11;;;;;;;5.03;0.70;;;5.00;99.90;;;;;;5044973;28;20207;-96
2021/12/23 12:33:54;;;;;;;2.97;1.57;;;5.10;99.90;;;;;;5040285;28;20625;-95
2021/12/23 12:36:26;;;;;;;2.67;2.37;;;5.10;99.90;;;;;;5041328;28;20244;-96
2021/12/23 12:39:14;;;;;;;9.07;5.70;;;5.00;99.90;;;;;;5042437;28;20567;-96
2021/12/23 12:41:48;;;;;;;2.67;0.60;;;5.10;99.90;;;;;;5044919;28;20889;-96
2021/12/23 12:44:26;;;;;;;2.27;0.53;;;5.10;99.90;;;;;;5024608;28;20208;-95
2021/12/23 12:47:07;;;;;;;5.57;2.63;;;5.00;99.90;;;;;;5040549;28;20312;-95
2021/12/23 12:49:42;;;;;;;2.97;0.50;;;5.00;99.90;;;;;;5040068;28;20233;-95
2021/12/23 12:52:26;;;;;;;4.53;0.70;;;5.00;99.90;;;;;;5042864;28;20205;-95
2021/12/23 12:55:03;;;;;;;3.73;1.80;;;5.00;99.90;;;;;;5040275;28;20209;-95
2021/12/23 12:57:39;;;;;;;0.80;0.70;;;5.00;99.90;;;;;;5041588;28;20205;-94
2021/12/23 13:00:31;;;;;;;2.33;0.73;;;5.00;99.90;;;;;;5042248;28;20208;-96
2021/12/23 13:03:09;;;;;;;1.73;0.40;;;5.00;99.90;;;;;;5026656;28;20339;-96
2021/12/23 13:05:42;;;;;;;1.00;0.40;;;5.00;99.90;;;;;;5041572;28;20236;-95
2021/12/23 13:08:20;;;;;;;1.17;0.50;;;5.00;99.90;;;;;;5042627;28;20548;-96
2021/12/23 13:10:51;;;;;;;0.80;0.40;;;5.00;99.90;;;;;;5042803;28;20263;-96
2021/12/23 13:13:32;;;;;;;2.67;0.37;;;5.00;99.90;;;;;;5041478;28;20220;-96
2021/12/23 13:16:14;;;;;;;3.87;0.90;;;5.00;99.90;;;;;;5043571;28;20209;-96
2021/12/23 13:18:46;;;;;;;2.93;0.63;;;4.90;99.90;;;;;;5045064;28;20216;-96
2021/12/23 13:21:23;;;;;;;2.47;0.70;;;4.90;99.90;;;;;;5047752;28;20266;-94
2021/12/23 13:24:03;;;;;;;0.80;0.50;;;4.90;99.90;;;;;;5056850;28;20210;-96
2021/12/23 13:26:34;;;;;;;1.60;0.47;;;5.00;99.90;;;;;;5037721;28;20201;-92
2021/12/23 13:29:13;;;;;;;2.53;0.70;;;5.00;99.90;;;;;;5042634;28;20225;-96
2021/12/23 13:31:46;;;;;;;0.60;0.30;;;5.00;99.90;;;;;;5023318;28;20212;-96
2021/12/23 13:34:22;;;;;;;1.90;0.30;;;5.00;99.90;;;;;;5019490;28;20206;-96
2021/12/23 13:36:56;;;;;;;3.23;1.27;;;5.00;99.90;;;;;;5020469;28;20205;-95
2021/12/23 13:39:29;;;;;;;2.97;0.40;;;5.00;99.90;;;;;;5019865;28;20225;-96
2021/12/23 13:42:04;;;;;;;0.60;0.30;;;5.00;99.90;;;;;;5005520;28;20941;-96
2021/12/23 13:44:40;;;;;;;0.93;0.40;;;5.00;99.90;;;;;;5039381;28;20232;-96
2021/12/23 13:47:13;;;;;;;1.80;0.73;;;5.00;99.90;;;;;;5020309;28;20265;-96
2021/12/23 13:49:47;;;;;;;2.77;0.53;;;4.90;99.90;;;;;;5037367;28;20392;-96
2021/12/23 13:52:22;;;;;;;0.90;0.30;;;4.90;99.90;;;;;;5037711;28;20665;-96
2021/12/23 13:54:57;;;;;;;1.47;0.20;;;4.90;99.90;;;;;;5037086;28;20251;-96
2021/12/23 13:57:30;;;;;;;4.47;0.50;;;4.90;99.90;;;;;;5038745;28;20295;-96
2021/12/23 14:00:12;;;;;;;3.53;0.80;;;4.80;99.90;;;;;;5037438;28;20579;-96
2021/12/23 14:02:44;;;;;;;0.83;0.40;;;4.70;99.90;;;;;;5037995;28;20240;-95
2021/12/23 14:05:17;;;;;;;1.43;1.13;;;4.70;99.90;;;;;;5038468;28;20545;-96
2021/12/23 14:07:51;;;;;;;1.57;0.43;;;4.70;99.90;;;;;;5023169;28;20209;-95
2021/12/23 14:10:24;;;;;;;1.70;0.30;;;4.70;99.90;;;;;;5039960;28;20295;-96
2021/12/23 14:12:57;;;;;;;1.97;0.40;;;4.70;99.90;;;;;;5037868;28;20209;-95
2021/12/23 14:15:32;;;;;;;2.73;0.50;;;4.70;99.90;;;;;;5037530;28;20623;-96
2021/12/23 14:18:09;;;;;;;2.20;0.50;;;4.70;99.90;;;;;;5036229;28;20235;-94
2021/12/23 14:23:37;;;;;;;2.63;0.53;;;4.80;99.90;;;;;;5037605;28;20560;-95
2021/12/23 14:26:12;;;;;;;1.73;0.50;;;4.80;99.90;;;;;;5037371;28;20233;-96
2021/12/23 14:28:46;;;;;;;1.23;0.53;;;4.90;99.90;;;;;;5038768;28;20228;-95